Terminal Aerodrome Forecast
Issued by NWS Paducah, KY

Home | Current Version | Previous Version | Text Only | Print | Product List | Glossary On
Versions: 1 2 3 4 5 6 7 8 9 10 11 12 13 14 15 16 17 18 19 20 21 22
765
FTUS43 KPAH 121134
TAFEVV
TAF
KEVV 121134Z 1212/1312 00000KT P6SM -SN SCT015 OVC040
      TEMPO 1212/1214 2SM -SN BR BKN015 OVC035
     FM121400 29006KT P6SM SCT025 OVC035
     FM121900 31013G20KT P6SM BKN015
     FM130200 33011KT P6SM SCT015=

USA.gov is the U.S. government's official web portal to all federal, state and local government web resources and services.